sensor_id;sensor_type;location;lat;lon;timestamp;temperature;humidity
22469;DHT22;11401;50.792;4.352;2023-06-22T00:14:22;24.80;56.20
22469;DHT22;11401;50.792;4.352;2023-06-22T00:16:50;24.80;56.80
22469;DHT22;11401;50.792;4.352;2023-06-22T00:19:22;24.80;56.60
22469;DHT22;11401;50.792;4.352;2023-06-22T00:21:50;24.80;56.80
22469;DHT22;11401;50.792;4.352;2023-06-22T00:24:20;24.80;56.60
22469;DHT22;11401;50.792;4.352;2023-06-22T00:26:48;24.80;55.70
22469;DHT22;11401;50.792;4.352;2023-06-22T00:29:15;24.90;56.00
22469;DHT22;11401;50.792;4.352;2023-06-22T00:31:42;24.90;56.60
22469;DHT22;11401;50.792;4.352;2023-06-22T00:34:10;24.90;56.20
22469;DHT22;11401;50.792;4.352;2023-06-22T00:36:37;24.90;56.20
22469;DHT22;11401;50.792;4.352;2023-06-22T00:39:04;24.80;56.40
22469;DHT22;11401;50.792;4.352;2023-06-22T00:41:32;24.90;56.50
22469;DHT22;11401;50.792;4.352;2023-06-22T00:43:59;24.80;56.60
22469;DHT22;11401;50.792;4.352;2023-06-22T00:46:25;24.80;56.40
22469;DHT22;11401;50.792;4.352;2023-06-22T00:48:53;24.80;56.40
22469;DHT22;11401;50.792;4.352;2023-06-22T00:51:24;24.80;56.50
22469;DHT22;11401;50.792;4.352;2023-06-22T00:53:51;24.80;56.50
22469;DHT22;11401;50.792;4.352;2023-06-22T00:56:20;24.80;56.40
22469;DHT22;11401;50.792;4.352;2023-06-22T00:58:52;24.80;56.80
22469;DHT22;11401;50.792;4.352;2023-06-22T01:01:21;24.70;56.60
22469;DHT22;11401;50.792;4.352;2023-06-22T01:03:50;24.70;56.80
22469;DHT22;11401;50.792;4.352;2023-06-22T01:06:35;24.70;56.70
22469;DHT22;11401;50.792;4.352;2023-06-22T01:09:15;24.70;56.60
22469;DHT22;11401;50.792;4.352;2023-06-22T01:11:57;24.70;56.80
22469;DHT22;11401;50.792;4.352;2023-06-22T01:14:38;24.70;56.90
22469;DHT22;11401;50.792;4.352;2023-06-22T01:17:09;24.70;57.00
22469;DHT22;11401;50.792;4.352;2023-06-22T01:19:49;24.70;57.10
22469;DHT22;11401;50.792;4.352;2023-06-22T01:22:25;24.70;57.10
22469;DHT22;11401;50.792;4.352;2023-06-22T01:25:12;24.70;57.50
22469;DHT22;11401;50.792;4.352;2023-06-22T01:30:34;24.70;57.20
22469;DHT22;11401;50.792;4.352;2023-06-22T01:33:05;24.70;57.90
22469;DHT22;11401;50.792;4.352;2023-06-22T01:35:33;24.70;57.40
22469;DHT22;11401;50.792;4.352;2023-06-22T01:38:00;24.70;57.30
22469;DHT22;11401;50.792;4.352;2023-06-22T01:40:28;24.70;57.00
22469;DHT22;11401;50.792;4.352;2023-06-22T01:42:57;24.70;56.00
22469;DHT22;11401;50.792;4.352;2023-06-22T01:45:24;24.70;56.80
22469;DHT22;11401;50.792;4.352;2023-06-22T01:47:52;24.70;56.50
22469;DHT22;11401;50.792;4.352;2023-06-22T01:50:21;24.60;55.50
22469;DHT22;11401;50.792;4.352;2023-06-22T01:52:48;24.50;55.70
22469;DHT22;11401;50.792;4.352;2023-06-22T01:55:15;24.60;56.10
22469;DHT22;11401;50.792;4.352;2023-06-22T01:57:42;24.60;56.50
22469;DHT22;11401;50.792;4.352;2023-06-22T02:00:17;24.60;56.40
22469;DHT22;11401;50.792;4.352;2023-06-22T02:02:56;24.70;56.30
22469;DHT22;11401;50.792;4.352;2023-06-22T02:05:39;24.70;56.70
22469;DHT22;11401;50.792;4.352;2023-06-22T02:08:20;24.70;56.50
22469;DHT22;11401;50.792;4.352;2023-06-22T02:10:49;24.70;56.70
22469;DHT22;11401;50.792;4.352;2023-06-22T02:13:17;24.60;56.70
22469;DHT22;11401;50.792;4.352;2023-06-22T02:15:46;24.60;56.70
22469;DHT22;11401;50.792;4.352;2023-06-22T02:18:14;24.60;56.40
22469;DHT22;11401;50.792;4.352;2023-06-22T02:20:41;24.60;56.60
22469;DHT22;11401;50.792;4.352;2023-06-22T02:23:08;24.60;56.50
22469;DHT22;11401;50.792;4.352;2023-06-22T02:25:35;24.60;56.30
22469;DHT22;11401;50.792;4.352;2023-06-22T02:28:03;24.60;56.50
22469;DHT22;11401;50.792;4.352;2023-06-22T02:30:30;24.60;56.80
22469;DHT22;11401;50.792;4.352;2023-06-22T02:32:59;24.60;56.50
22469;DHT22;11401;50.792;4.352;2023-06-22T02:35:27;24.60;56.30
22469;DHT22;11401;50.792;4.352;2023-06-22T02:37:59;24.50;56.10
22469;DHT22;11401;50.792;4.352;2023-06-22T02:40:28;24.50;56.00
22469;DHT22;11401;50.792;4.352;2023-06-22T02:42:57;24.50;56.40
22469;DHT22;11401;50.792;4.352;2023-06-22T02:45:28;24.50;56.50
22469;DHT22;11401;50.792;4.352;2023-06-22T02:47:56;24.50;56.70
22469;DHT22;11401;50.792;4.352;2023-06-22T02:50:23;24.50;56.70
22469;DHT22;11401;50.792;4.352;2023-06-22T02:52:51;24.50;56.80
22469;DHT22;11401;50.792;4.352;2023-06-22T02:55:19;24.40;56.80
22469;DHT22;11401;50.792;4.352;2023-06-22T02:57:53;24.40;56.90
22469;DHT22;11401;50.792;4.352;2023-06-22T03:00:21;24.30;56.80
22469;DHT22;11401;50.792;4.352;2023-06-22T03:02:49;24.30;57.00
22469;DHT22;11401;50.792;4.352;2023-06-22T03:05:17;24.30;57.10
22469;DHT22;11401;50.792;4.352;2023-06-22T03:07:46;24.30;57.00
22469;DHT22;11401;50.792;4.352;2023-06-22T03:10:14;24.30;57.10
22469;DHT22;11401;50.792;4.352;2023-06-22T03:12:42;24.30;57.60
22469;DHT22;11401;50.792;4.352;2023-06-22T03:15:12;24.30;57.00
22469;DHT22;11401;50.792;4.352;2023-06-22T03:17:40;24.20;56.90
22469;DHT22;11401;50.792;4.352;2023-06-22T03:20:09;24.20;56.80
22469;DHT22;11401;50.792;4.352;2023-06-22T03:22:39;24.20;56.80
22469;DHT22;11401;50.792;4.352;2023-06-22T03:25:07;24.20;56.80
22469;DHT22;11401;50.792;4.352;2023-06-22T03:27:41;24.20;56.70
22469;DHT22;11401;50.792;4.352;2023-06-22T03:30:10;24.20;56.70
22469;DHT22;11401;50.792;4.352;2023-06-22T03:32:38;24.20;56.60
22469;DHT22;11401;50.792;4.352;2023-06-22T03:35:06;24.20;56.40
22469;DHT22;11401;50.792;4.352;2023-06-22T03:37:36;24.20;56.60
22469;DHT22;11401;50.792;4.352;2023-06-22T03:40:03;24.10;56.60
22469;DHT22;11401;50.792;4.352;2023-06-22T03:42:34;24.10;56.80
22469;DHT22;11401;50.792;4.352;2023-06-22T03:45:03;24.10;56.80
22469;DHT22;11401;50.792;4.352;2023-06-22T03:47:31;24.10;56.80
22469;DHT22;11401;50.792;4.352;2023-06-22T03:49:58;24.00;56.70
22469;DHT22;11401;50.792;4.352;2023-06-22T03:52:25;24.10;56.60
22469;DHT22;11401;50.792;4.352;2023-06-22T03:54:52;24.00;56.60
22469;DHT22;11401;50.792;4.352;2023-06-22T03:57:19;24.00;56.70
22469;DHT22;11401;50.792;4.352;2023-06-22T03:59:46;24.10;56.80
22469;DHT22;11401;50.792;4.352;2023-06-22T04:02:13;24.00;56.80
22469;DHT22;11401;50.792;4.352;2023-06-22T04:04:40;24.10;56.90
22469;DHT22;11401;50.792;4.352;2023-06-22T04:07:08;24.00;56.90
22469;DHT22;11401;50.792;4.352;2023-06-22T04:09:35;24.10;57.20
22469;DHT22;11401;50.792;4.352;2023-06-22T04:12:02;24.10;57.10
22469;DHT22;11401;50.792;4.352;2023-06-22T04:14:29;24.10;57.00
22469;DHT22;11401;50.792;4.352;2023-06-22T04:16:58;24.10;56.60
22469;DHT22;11401;50.792;4.352;2023-06-22T04:19:25;24.10;56.30
22469;DHT22;11401;50.792;4.352;2023-06-22T04:21:52;24.00;56.10
22469;DHT22;11401;50.792;4.352;2023-06-22T04:24:19;24.00;56.20
22469;DHT22;11401;50.792;4.352;2023-06-22T04:26:46;24.00;56.10
22469;DHT22;11401;50.792;4.352;2023-06-22T04:29:14;24.00;56.20
22469;DHT22;11401;50.792;4.352;2023-06-22T04:31:41;24.10;56.20
22469;DHT22;11401;50.792;4.352;2023-06-22T04:34:09;24.10;56.30
22469;DHT22;11401;50.792;4.352;2023-06-22T04:36:38;24.10;56.30
22469;DHT22;11401;50.792;4.352;2023-06-22T04:39:10;24.10;56.30
22469;DHT22;11401;50.792;4.352;2023-06-22T04:41:38;24.10;56.40
22469;DHT22;11401;50.792;4.352;2023-06-22T04:44:10;24.00;56.30
22469;DHT22;11401;50.792;4.352;2023-06-22T04:46:37;24.00;56.70
22469;DHT22;11401;50.792;4.352;2023-06-22T04:49:08;24.00;56.80
22469;DHT22;11401;50.792;4.352;2023-06-22T04:51:40;24.00;56.90
22469;DHT22;11401;50.792;4.352;2023-06-22T04:54:08;24.00;56.90
22469;DHT22;11401;50.792;4.352;2023-06-22T04:56:35;24.00;57.10
22469;DHT22;11401;50.792;4.352;2023-06-22T04:59:03;24.00;57.20
22469;DHT22;11401;50.792;4.352;2023-06-22T05:01:30;24.00;57.40
22469;DHT22;11401;50.792;4.352;2023-06-22T05:04:01;24.00;58.30
22469;DHT22;11401;50.792;4.352;2023-06-22T05:06:29;24.10;59.50
22469;DHT22;11401;50.792;4.352;2023-06-22T05:08:57;24.00;59.80
22469;DHT22;11401;50.792;4.352;2023-06-22T05:11:26;24.10;60.60
22469;DHT22;11401;50.792;4.352;2023-06-22T05:13:53;24.10;61.00
22469;DHT22;11401;50.792;4.352;2023-06-22T05:16:21;24.00;61.60
22469;DHT22;11401;50.792;4.352;2023-06-22T05:18:55;24.00;62.60
22469;DHT22;11401;50.792;4.352;2023-06-22T05:21:23;24.00;62.90
22469;DHT22;11401;50.792;4.352;2023-06-22T05:23:51;24.00;63.50
22469;DHT22;11401;50.792;4.352;2023-06-22T05:26:20;24.00;64.20
22469;DHT22;11401;50.792;4.352;2023-06-22T05:28:47;24.00;64.60
22469;DHT22;11401;50.792;4.352;2023-06-22T05:31:15;24.00;65.20
22469;DHT22;11401;50.792;4.352;2023-06-22T05:33:43;23.90;65.10
22469;DHT22;11401;50.792;4.352;2023-06-22T05:36:11;23.80;64.60
22469;DHT22;11401;50.792;4.352;2023-06-22T05:38:39;23.90;65.20
22469;DHT22;11401;50.792;4.352;2023-06-22T05:41:07;23.80;64.70
22469;DHT22;11401;50.792;4.352;2023-06-22T05:43:34;23.80;64.30
22469;DHT22;11401;50.792;4.352;2023-06-22T05:46:03;23.80;63.80
22469;DHT22;11401;50.792;4.352;2023-06-22T05:48:30;23.80;64.80
22469;DHT22;11401;50.792;4.352;2023-06-22T05:50:58;23.80;64.90
22469;DHT22;11401;50.792;4.352;2023-06-22T05:53:25;24.00;64.20
22469;DHT22;11401;50.792;4.352;2023-06-22T05:55:52;24.10;63.80
22469;DHT22;11401;50.792;4.352;2023-06-22T05:58:19;24.10;63.80
22469;DHT22;11401;50.792;4.352;2023-06-22T06:00:46;24.20;63.80
22469;DHT22;11401;50.792;4.352;2023-06-22T06:03:14;24.20;63.80
22469;DHT22;11401;50.792;4.352;2023-06-22T06:05:44;24.30;63.50
22469;DHT22;11401;50.792;4.352;2023-06-22T06:08:12;24.30;63.70
22469;DHT22;11401;50.792;4.352;2023-06-22T06:10:39;24.40;63.70
22469;DHT22;11401;50.792;4.352;2023-06-22T06:13:06;24.30;63.80
22469;DHT22;11401;50.792;4.352;2023-06-22T06:15:34;24.40;63.90
22469;DHT22;11401;50.792;4.352;2023-06-22T06:18:01;24.40;63.60
22469;DHT22;11401;50.792;4.352;2023-06-22T06:20:32;24.40;63.20
22469;DHT22;11401;50.792;4.352;2023-06-22T06:23:00;24.40;63.10
22469;DHT22;11401;50.792;4.352;2023-06-22T06:25:27;24.40;63.00
22469;DHT22;11401;50.792;4.352;2023-06-22T06:27:54;24.40;63.40
